This is the latest recevied weather packets stored in our database for station/object G8PZT. If no packets are shown the sender has not sent any weather packets the latest 10 day(s).
| Time | Temp. | Humidity | Pressure | Rain* | Wind** | Luminosity | Snow |
|---|---|---|---|---|---|---|---|
| 1788110920 | 15.56° C | 72% | - | 0 mm | - | - | - |
| 1788110402 | 15.56° C | 73% | - | 0 mm | - | - | - |
| 1788110319 | 15.56° C | 73% | - | 0 mm | - | - | - |
| 1788109720 | 15.56° C | 73% | - | 0 mm | - | - | - |
| 1788109203 | 15.56° C | 72% | - | 4.06 mm | - | - | - |
| 1788109120 | 15.56° C | 72% | - | 4.06 mm | - | - | - |
| 1788108520 | 15.56° C | 72% | - | 4.06 mm | - | - | - |
| 1788108002 | 16.11° C | 70% | - | 4.06 mm | - | - | - |
| 1788107920 | 16.11° C | 70% | - | 4.06 mm | - | - | - |
| 1788107320 | 16.11° C | 68% | - | 2.03 mm | - | - | - |
| 1788106802 | 16.11° C | 66% | - | 2.03 mm | - | - | - |
| 1788106720 | 16.11° C | 66% | - | 2.03 mm | - | - | - |
| 1788106119 | 16.67° C | 62% | - | 2.03 mm | - | - | - |
| 1788105603 | 18.33° C | 57% | - | 1.02 mm | - | - | - |
| 1788105519 | 18.89° C | 52% | - | 0 mm | - | - | - |
| 1788104919 | 19.44° C | 45% | - | 0 mm | - | - | - |
| 1788104402 | 19.44° C | 42% | - | 0 mm | - | - | - |
| 1788104319 | 19.44° C | 42% | - | 0 mm | - | - | - |
| 1788103720 | 20° C | 41% | - | 0 mm | - | - | - |
| 1788103119 | 20° C | 40% | - | 0 mm | - | - | - |
| 1788102520 | 20° C | 40% | - | 0 mm | - | - | - |
| 1788101920 | 20° C | 40% | - | 0 mm | - | - | - |
| 1788101320 | 20° C | 39% | - | 0 mm | - | - | - |
| 1788100803 | 20° C | 39% | - | 0 mm | - | - | - |
| 1788100720 | 19.44° C | 41% | - | 0 mm | - | - | - |
* Rain latest hour (hover to see other rain measurements)
** Current wind speed in m/s (hover to see current wind gust speed)